Time;durP1;ratioP1;P1;durP2;ratioP2;P2;SDS_P1;SDS_P2;PMS_P1;PMS_P2;Temp;Humidity;BMP_temperature;BMP_pressure;BME280_temperature;BME280_humidity;BME280_pressure;Samples;Min_cycle;Max_cycle;Signal;HPM_P1;HPM_P2
2021/11/30 00:04:31;;;;;;;12.30;11.30;;;;;;;1.26;84.14;99278.47;10420475;28;20076;-72
2021/11/30 00:14:39;;;;;;;12.23;11.32;;;;;;;1.25;83.48;99292.28;10420011;28;20049;-73
2021/11/30 00:19:42;;;;;;;12.85;11.38;;;;;;;1.21;83.47;99282.81;10419173;28;20061;-72
2021/11/30 00:24:44;;;;;;;12.27;11.27;;;;;;;1.21;83.22;99282.81;10418877;28;20411;-72
2021/11/30 00:29:47;;;;;;;11.13;10.30;;;;;;;1.32;82.62;99280.16;10400829;28;20458;-72
2021/11/30 00:34:49;;;;;;;11.27;10.38;;;;;;;1.31;81.93;99286.19;10418134;28;20082;-72
2021/11/30 00:39:51;;;;;;;11.68;10.80;;;;;;;1.26;81.91;99284.50;10401674;28;20041;-72
2021/11/30 00:44:54;;;;;;;12.93;11.82;;;;;;;1.19;82.70;99292.31;10401228;28;20116;-73
2021/11/30 00:49:59;;;;;;;12.88;11.88;;;;;;;1.19;82.47;99300.06;10402137;28;20073;-72
2021/11/30 00:55:00;;;;;;;11.98;10.98;;;;;;;1.22;81.99;99300.06;10419083;28;20045;-73
2021/11/30 01:00:04;;;;;;;13.43;12.38;;;;;;;1.25;82.10;99297.47;10400563;28;20091;-72
2021/11/30 01:05:08;;;;;;;13.10;12.00;;;;;;;1.27;81.94;99303.47;10401480;28;20073;-73
2021/11/30 01:10:13;;;;;;;13.75;12.65;;;;;;;1.34;81.88;99302.59;10418127;28;20129;-72
2021/11/30 01:15:17;;;;;;;13.02;11.95;;;;;;;1.33;81.72;99310.34;10418070;28;20124;-72
2021/11/30 01:20:20;;;;;;;12.98;11.88;;;;;;;1.29;81.37;99313.84;10419724;28;20061;-73
2021/11/30 01:25:23;;;;;;;13.13;12.02;;;;;;;1.33;80.85;99310.34;10401476;28;20038;-72
2021/11/30 01:30:25;;;;;;;12.98;11.65;;;;;;;1.25;81.48;99303.50;10418954;28;20459;-72
2021/11/30 01:35:27;;;;;;;12.85;11.73;;;;;;;1.37;80.55;99299.09;10417757;28;20053;-72
2021/11/30 01:40:30;;;;;;;12.00;11.05;;;;;;;1.31;80.21;99301.75;10425266;28;20368;-72
2021/11/30 01:50:56;;;;;;;11.98;10.98;;;;;;;1.19;80.26;99308.69;10424895;28;20042;-73
2021/11/30 01:55:58;;;;;;;11.07;10.18;;;;;;;1.11;80.43;99307.91;10424546;28;20077;-72
2021/11/30 02:01:00;;;;;;;10.65;9.75;;;;;;;1.27;79.06;99299.16;10423220;28;20056;-73
2021/11/30 02:06:02;;;;;;;10.50;9.50;;;;;;;1.13;79.64;99294.94;10423702;28;20491;-72
2021/11/30 02:11:04;;;;;;;10.35;9.43;;;;;;;1.12;79.38;99283.72;10389838;28;20153;-72
2021/11/30 02:16:07;;;;;;;10.07;9.25;;;;;;;1.14;79.44;99283.72;10425075;28;20049;-74
2021/11/30 02:21:10;;;;;;;9.13;8.32;;;;;;;1.09;79.14;99270.78;10424833;28;20045;-73
2021/11/30 02:26:15;;;;;;;8.75;8.05;;;;;;;0.94;79.74;99265.72;10405895;28;20136;-72
2021/11/30 02:31:19;;;;;;;9.32;8.52;;;;;;;0.94;78.86;99256.22;10423518;28;20041;-72
2021/11/30 02:41:52;;;;;;;7.90;7.30;;;;;;;0.93;77.82;99243.28;10420997;28;20050;-73
2021/11/30 02:46:59;;;;;;;7.93;7.28;;;;;;;1.03;76.72;99244.09;10405265;28;20045;-73
2021/11/30 02:52:08;;;;;;;7.55;6.95;;;;;;;0.97;76.33;99243.28;10405704;28;20080;-74
2021/11/30 02:57:13;;;;;;;7.65;7.05;;;;;;;0.87;76.23;99233.81;10425159;28;20103;-73
2021/11/30 03:02:25;;;;;;;7.35;6.75;;;;;;;0.77;76.59;99218.38;10406196;28;20120;-73
2021/11/30 03:07:36;;;;;;;7.85;7.25;;;;;;;0.72;76.55;99210.66;10422041;28;20136;-72
2021/11/30 03:12:39;;;;;;;7.25;6.65;;;;;;;0.80;75.76;99208.88;10421144;28;20056;-73
2021/11/30 03:17:41;;;;;;;10.02;6.28;;;;;;;0.70;75.60;99199.44;10402862;28;20044;-73
2021/11/30 03:22:45;;;;;;;7.00;6.40;;;;;;;0.70;75.43;99184.75;10404485;28;20088;-73
2021/11/30 03:27:49;;;;;;;8.60;7.13;;;;;;;0.65;75.42;99176.19;10421652;28;20052;-72
2021/11/30 03:38:11;;;;;;;7.30;6.70;;;;;;;0.61;75.29;99158.94;10420703;28;20415;-72
2021/11/30 03:43:13;;;;;;;6.78;6.28;;;;;;;0.55;74.87;99153.84;10421974;28;20042;-73
2021/11/30 03:48:15;;;;;;;5.45;5.05;;;;;;;0.66;73.47;99141.69;10421901;28;20049;-74
2021/11/30 03:53:17;;;;;;;5.93;5.43;;;;;;;0.81;72.42;99129.53;10404386;28;20041;-72
2021/11/30 03:58:19;;;;;;;5.55;5.10;;;;;;;0.71;72.34;99121.84;10420242;28;20040;-72
2021/11/30 04:03:22;;;;;;;4.40;4.10;;;;;;;0.84;71.46;99108.78;10420691;28;20041;-74
2021/11/30 04:08:29;;;;;;;4.57;4.18;;;;;;;0.80;71.33;99100.22;10419289;28;20470;-73
2021/11/30 04:13:32;;;;;;;4.65;4.25;;;;;;;0.81;71.19;99085.56;10419493;28;20112;-72
2021/11/30 04:18:34;;;;;;;3.65;3.35;;;;;;;0.94;70.32;99077.69;10418500;28;20044;-72
2021/11/30 04:23:36;;;;;;;3.88;3.58;;;;;;;1.14;69.06;99054.19;10400455;28;20071;-72
2021/11/30 04:28:39;;;;;;;4.38;4.07;;;;;;;1.06;69.12;99050.81;10418724;28;20080;-72
2021/11/30 04:33:41;;;;;;;4.68;4.28;;;;;;;1.09;69.45;99035.28;10418197;28;20128;-74
2021/11/30 04:38:43;;;;;;;5.00;4.60;;;;;;;1.15;69.23;99042.09;10418219;28;20087;-72
2021/11/30 04:43:45;;;;;;;4.70;4.30;;;;;;;1.17;69.92;99030.88;10418075;28;20049;-72
2021/11/30 04:54:15;;;;;;;5.20;4.80;;;;;;;1.29;69.96;99021.28;10396579;28;20049;-73
2021/11/30 04:59:20;;;;;;;5.40;4.85;;;;;;;1.33;70.47;99003.13;10418308;28;20447;-73
2021/11/30 05:04:22;;;;;;;5.75;5.25;;;;;;;1.35;70.45;98988.41;10400390;28;20041;-72
2021/11/30 05:09:24;;;;;;;6.32;5.68;;;;;;;1.47;70.04;98987.41;10384425;28;20076;-72
2021/11/30 05:14:27;;;;;;;6.18;5.78;;;;;;;1.46;70.93;98970.16;10425281;28;20049;-73
2021/11/30 05:19:30;;;;;;;7.32;6.72;;;;;;;1.55;72.18;98966.59;10409643;28;20435;-72
2021/11/30 05:24:31;;;;;;;8.05;7.45;;;;;;;1.47;75.43;98969.28;10409729;28;20045;-73
2021/11/30 05:29:33;;;;;;;11.25;8.85;;;;;;;1.37;79.02;98967.66;10426541;28;20041;-73
2021/11/30 05:34:35;;;;;;;10.68;9.13;;;;;;;1.36;80.42;98960.78;10427899;28;20061;-73
2021/11/30 05:39:37;;;;;;;10.20;9.40;;;;;;;1.33;81.58;98956.50;10427968;28;20053;-73
2021/11/30 05:44:39;;;;;;;9.70;8.93;;;;;;;1.46;81.00;98944.25;10427565;28;20077;-74
2021/11/30 05:49:41;;;;;;;10.70;9.90;;;;;;;1.42;81.93;98927.06;10409152;28;20065;-75
2021/11/30 05:54:43;;;;;;;9.90;9.10;;;;;;;1.58;80.85;98927.72;10392105;28;20056;-73
2021/11/30 05:59:46;;;;;;;10.85;9.95;;;;;;;1.63;80.93;98915.53;10426998;28;20037;-73
2021/11/30 06:04:47;;;;;;;9.43;8.55;;;;;;;1.60;80.62;98898.31;10407955;28;20127;-73
2021/11/30 06:09:49;;;;;;;8.95;8.15;;;;;;;1.71;80.33;98905.94;10424861;28;20038;-73
2021/11/30 06:14:51;;;;;;;9.02;8.27;;;;;;;1.76;79.93;98902.41;10424423;28;20076;-73
2021/11/30 06:19:53;;;;;;;7.97;7.28;;;;;;;1.84;79.13;98897.09;10407210;28;20045;-73
2021/11/30 06:24:55;;;;;;;7.45;6.85;;;;;;;1.93;78.43;98886.59;10425980;28;20045;-73
2021/11/30 06:29:56;;;;;;;6.53;5.95;;;;;;;1.99;77.18;98881.34;10428300;28;20087;-73
2021/11/30 06:34:59;;;;;;;7.00;6.40;;;;;;;2.11;76.67;98879.41;10427485;28;20053;-74
2021/11/30 06:40:00;;;;;;;6.63;6.13;;;;;;;2.03;77.34;98851.03;10407707;28;20049;-73
2021/11/30 06:45:03;;;;;;;6.20;5.65;;;;;;;2.08;77.31;98850.94;10424960;28;20097;-72
2021/11/30 06:50:05;;;;;;;5.97;5.50;;;;;;;2.08;78.98;98832.81;10425909;28;20041;-74
2021/11/30 06:55:09;;;;;;;5.10;4.60;;;;;;;2.06;79.35;98816.44;10425252;28;20061;-73
2021/11/30 07:00:13;;;;;;;4.88;4.45;;;;;;;1.95;80.86;98804.53;10407712;28;20495;-74
2021/11/30 07:10:41;;;;;;;4.00;3.70;;;;;;;1.79;83.08;98774.56;10424783;28;20128;-74
2021/11/30 07:15:45;;;;;;;3.35;2.85;;;;;;;1.84;82.18;98757.19;10406436;28;20056;-73
2021/11/30 07:20:48;;;;;;;2.85;2.63;;;;;;;1.88;82.13;98732.94;10424605;28;20042;-73
2021/11/30 07:25:52;;;;;;;2.63;2.42;;;;;;;2.01;80.35;98726.66;10425779;28;20052;-74
2021/11/30 07:30:58;;;;;;;1.90;1.77;;;;;;;2.06;80.42;98710.16;10424611;28;20097;-74
2021/11/30 07:36:01;;;;;;;2.08;1.98;;;;;;;1.97;81.13;98680.94;10406241;28;20103;-76
2021/11/30 07:41:04;;;;;;;2.50;1.70;;;;;;;2.06;80.45;98671.28;10424742;28;20068;-75
2021/11/30 07:46:07;;;;;;;1.85;1.50;;;;;;;2.01;81.03;98651.50;10405281;28;20058;-75
2021/11/30 07:51:10;;;;;;;1.67;1.55;;;;;;;1.88;82.24;98651.75;10406177;28;20108;-74
2021/11/30 07:56:12;;;;;;;1.83;1.15;;;;;;;1.86;82.63;98650.91;10423700;28;20041;-75
2021/11/30 08:01:16;;;;;;;2.25;2.05;;;;;;;1.79;83.79;98631.22;10421765;28;20045;-74
2021/11/30 08:06:18;;;;;;;1.77;1.10;;;;;;;1.85;82.67;98620.72;10440599;23;20087;-70
2021/11/30 08:11:19;;;;;;;2.08;1.20;;;;;;;1.84;82.55;98609.50;10457862;28;20099;-71
2021/11/30 08:16:21;;;;;;;6.60;1.10;;;;;;;1.92;82.57;98573.09;10457173;28;20374;-71
2021/11/30 08:21:24;;;;;;;2.47;1.15;;;;;;;1.87;83.59;98561.97;10457358;28;20037;-70
2021/11/30 08:26:26;;;;;;;0.98;0.70;;;;;;;1.95;82.02;98532.41;10457057;28;20055;-70
2021/11/30 08:31:32;;;;;;;2.13;1.20;;;;;;;2.01;81.64;98532.28;10459097;28;20486;-72
2021/11/30 08:36:37;;;;;;;2.05;1.13;;;;;;;1.97;82.15;98503.88;10423727;28;20524;-71
2021/11/30 08:41:39;;;;;;;1.60;0.85;;;;;;;2.07;80.34;98501.91;10457325;28;20040;-71
2021/11/30 08:46:58;;;;;;;0.82;0.63;;;;;;;2.16;79.65;98496.53;10456505;28;20108;-69
2021/11/30 08:52:02;;;;;;;1.23;0.75;;;;;;;2.20;78.55;98467.06;10456114;28;20051;-70
2021/11/30 08:57:05;;;;;;;0.70;0.68;;;;;;;2.23;78.46;98473.03;10455546;28;20045;-70
2021/11/30 09:02:08;;;;;;;0.95;0.80;;;;;;;2.23;79.36;98443.66;10438290;28;20447;-70
2021/11/30 09:07:10;;;;;;;1.90;0.60;;;;;;;2.20;79.64;98435.94;10438314;28;20068;-70
2021/11/30 09:12:12;;;;;;;1.95;0.70;;;;;;;2.21;80.95;98442.84;10455811;28;20083;-70
2021/11/30 09:17:14;;;;;;;0.68;0.55;;;;;;;2.16;81.24;98436.91;10455131;28;20120;-71
2021/11/30 09:22:16;;;;;;;0.80;0.75;;;;;;;2.21;81.15;98409.13;10455736;28;20112;-71
2021/11/30 09:27:20;;;;;;;1.02;0.60;;;;;;;2.25;80.62;98403.84;10437987;28;20048;-71
2021/11/30 09:32:29;;;;;;;2.45;0.63;;;;;;;2.30;80.95;98415.84;10455546;28;20487;-71
2021/11/30 09:37:39;;;;;;;3.70;0.60;;;;;;;2.24;81.85;98396.09;10455532;28;20099;-70
2021/11/30 09:42:43;;;;;;;1.15;0.50;;;;;;;2.20;82.78;98397.91;10455176;28;20581;-70
2021/11/30 09:47:45;;;;;;;0.90;0.60;;;;;;;2.21;82.87;98389.28;10455271;28;20113;-71
2021/11/30 09:52:51;;;;;;;1.88;0.60;;;;;;;2.29;82.27;98402.03;10454997;28;20072;-71
2021/11/30 09:57:54;;;;;;;0.63;0.63;;;;;;;2.42;81.36;98406.03;10456655;28;20123;-70
2021/11/30 10:02:56;;;;;;;0.60;0.50;;;;;;;2.51;79.60;98371.22;10462367;28;20078;-71
2021/11/30 10:08:00;;;;;;;1.38;0.60;;;;;;;2.60;79.94;98372.72;10444319;28;20510;-71
2021/11/30 10:13:02;;;;;;;0.73;0.55;;;;;;;2.68;80.24;98350.03;10444398;28;20128;-71
2021/11/30 10:18:25;;;;;;;0.82;0.50;;;;;;;2.70;79.62;98330.06;10461527;28;20379;-71
2021/11/30 10:23:30;;;;;;;0.63;0.32;;;;;;;2.75;79.65;98330.81;10462367;28;20087;-72
2021/11/30 10:28:33;;;;;;;0.85;0.68;;;;;;;2.76;79.17;98327.31;10463538;28;20437;-71
2021/11/30 10:33:35;;;;;;;0.68;0.40;;;;;;;2.75;79.77;98341.19;10461923;28;20037;-70
2021/11/30 10:38:39;;;;;;;3.60;1.42;;;;;;;2.80;78.95;98325.50;10461115;28;20124;-70
2021/11/30 10:43:52;;;;;;;0.70;0.30;;;;;;;2.82;78.98;98293.41;10442566;28;20048;-71
2021/11/30 10:48:54;;;;;;;3.22;0.40;;;;;;;2.81;80.29;98272.72;10443713;28;20043;-72
2021/11/30 10:54:00;;;;;;;1.00;0.30;;;;;;;2.77;81.57;98285.75;10461156;28;20049;-71
2021/11/30 10:59:02;;;;;;;0.20;0.20;;;;;;;2.80;81.37;98271.88;10461751;28;20076;-71
2021/11/30 11:04:12;;;;;;;0.50;0.28;;;;;;;3.04;79.59;98276.31;10442426;28;20136;-69
2021/11/30 11:09:14;;;;;;;0.22;0.22;;;;;;;3.18;78.32;98268.13;10440721;28;20399;-71
2021/11/30 11:14:26;;;;;;;0.45;0.20;;;;;;;3.27;77.74;98267.00;10460813;28;20041;-70
2021/11/30 11:19:48;;;;;;;1.70;0.73;;;;;;;3.31;78.04;98245.22;10460244;28;20041;-71
2021/11/30 11:24:54;;;;;;;1.73;0.57;;;;;;;3.40;77.16;98241.50;10459517;28;20063;-70
2021/11/30 11:29:56;;;;;;;0.55;0.40;;;;;;;3.47;76.36;98238.66;10459012;28;20041;-70
2021/11/30 11:34:59;;;;;;;1.02;0.80;;;;;;;3.48;76.44;98240.34;10440933;28;20401;-72
2021/11/30 11:40:01;;;;;;;1.50;0.40;;;;;;;3.45;76.69;98226.63;10441246;28;20073;-70
2021/11/30 11:45:03;;;;;;;3.78;1.20;;;;;;;3.41;77.82;98219.81;10458745;28;20124;-71
2021/11/30 11:50:13;;;;;;;2.70;2.35;;;;;;;3.43;77.15;98239.66;10440256;28;20047;-71
2021/11/30 11:55:17;;;;;;;1.35;1.25;;;;;;;3.34;77.91;98245.16;10459471;28;20103;-70
2021/11/30 12:00:27;;;;;;;0.30;0.30;;;;;;;3.24;79.86;98230.75;10458135;28;20071;-70
2021/11/30 12:05:43;;;;;;;3.15;0.80;;;;;;;3.14;81.81;98235.34;10439587;28;20072;-71
2021/11/30 12:10:46;;;;;;;1.35;0.20;;;;;;;3.08;82.20;98224.31;10450827;28;20035;-70
2021/11/30 12:16:05;;;;;;;6.85;0.38;;;;;;;3.07;81.84;98230.41;10440079;28;20458;-69
2021/11/30 12:21:26;;;;;;;1.17;0.80;;;;;;;3.03;84.05;98253.03;10426012;28;20437;-70
2021/11/30 12:26:30;;;;;;;0.60;0.60;;;;;;;2.94;83.62;98237.72;10420189;28;20124;-71
2021/11/30 12:31:35;;;;;;;1.48;0.30;;;;;;;2.81;86.08;98236.38;10456617;28;20132;-70
2021/11/30 12:36:42;;;;;;;0.47;0.47;;;;;;;2.75;85.88;98211.47;10494146;28;20458;-71
2021/11/30 12:41:50;;;;;;;0.20;0.20;;;;;;;2.76;85.84;98208.81;10481122;28;20065;-70
2021/11/30 12:46:54;;;;;;;0.30;0.20;;;;;;;2.75;85.85;98214.06;10465746;28;20037;-71
2021/11/30 12:52:08;;;;;;;0.30;0.30;;;;;;;2.67;86.75;98216.88;10455772;28;20092;-71
2021/11/30 12:57:13;;;;;;;0.57;0.20;;;;;;;2.69;86.36;98222.84;10457121;28;20041;-71
2021/11/30 13:02:23;;;;;;;0.30;0.30;;;;;;;2.70;86.12;98226.31;10455771;28;20045;-70
2021/11/30 13:07:25;;;;;;;1.23;0.70;;;;;;;2.74;85.96;98226.16;10456099;28;20049;-70
2021/11/30 13:12:30;;;;;;;0.73;0.40;;;;;;;2.72;86.23;98214.16;10455168;28;20116;-70
2021/11/30 13:17:36;;;;;;;0.20;0.20;;;;;;;2.75;86.58;98232.22;10452873;28;20079;-71
2021/11/30 13:22:39;;;;;;;0.70;0.40;;;;;;;2.88;86.07;98223.19;10414150;28;20049;-71
2021/11/30 13:28:11;;;;;;;2.38;0.30;;;;;;;2.83;86.69;98209.47;10413934;28;20501;-70
2021/11/30 13:33:22;;;;;;;0.40;0.30;;;;;;;3.00;85.44;98220.22;10383852;28;20133;-70
2021/11/30 13:38:38;;;;;;;0.65;0.20;;;;;;;3.07;85.42;98213.09;10443649;28;20037;-70
2021/11/30 13:43:43;;;;;;;0.20;0.20;;;;;;;3.01;85.52;98228.84;10424294;28;20426;-71
2021/11/30 13:48:48;;;;;;;0.57;0.30;;;;;;;3.08;85.17;98221.72;10421668;28;20088;-70
2021/11/30 13:53:59;;;;;;;0.28;0.28;;;;;;;3.15;85.19;98234.47;10455958;28;20486;-70
2021/11/30 14:04:47;;;;;;;3.75;3.05;;;;;;;3.28;85.93;98245.34;10432934;28;20411;-70
2021/11/30 14:09:49;;;;;;;1.75;1.33;;;;;;;3.24;86.21;98238.53;10446090;28;20072;-70
2021/11/30 14:14:53;;;;;;;1.02;0.85;;;;;;;3.26;86.82;98226.34;10461594;28;20128;-70
2021/11/30 14:19:56;;;;;;;1.58;0.80;;;;;;;3.28;87.52;98237.56;10442598;28;20076;-70
2021/11/30 14:25:09;;;;;;;1.38;1.00;;;;;;;3.31;87.25;98231.41;10420016;28;20037;-70
2021/11/30 14:30:17;;;;;;;0.60;0.35;;;;;;;3.38;86.04;98240.72;10419946;28;20038;-70
2021/11/30 14:35:19;;;;;;;0.22;0.20;;;;;;;3.41;86.44;98240.59;10419787;28;20041;-70
2021/11/30 14:40:41;;;;;;;0.30;0.20;;;;;;;3.38;86.14;98233.75;10419510;28;20124;-70
2021/11/30 14:45:50;;;;;;;0.47;0.40;;;;;;;3.44;86.07;98237.91;10401402;28;20235;-70
2021/11/30 14:50:55;;;;;;;0.60;0.22;;;;;;;3.33;86.05;98235.66;10418997;28;20056;-70
2021/11/30 14:56:12;;;;;;;5.35;0.70;;;;;;;3.17;87.23;98230.06;10418988;28;20052;-71
2021/11/30 15:01:25;;;;;;;1.02;0.52;;;;;;;3.23;86.19;98226.44;10400939;28;20060;-69
2021/11/30 15:06:48;;;;;;;1.13;0.90;;;;;;;3.20;86.57;98229.16;10419331;28;20041;-70
2021/11/30 15:11:58;;;;;;;0.52;0.50;;;;;;;3.15;86.41;98250.06;10419817;28;20102;-69
2021/11/30 15:17:06;;;;;;;3.25;1.85;;;;;;;3.14;86.63;98282.09;10419615;28;20101;-70
2021/11/30 15:22:15;;;;;;;0.40;0.40;;;;;;;3.13;86.80;98285.59;10420106;28;20514;-71
2021/11/30 15:27:21;;;;;;;0.82;0.60;;;;;;;3.17;85.93;98284.59;10418739;28;20507;-70
2021/11/30 15:32:27;;;;;;;1.38;0.95;;;;;;;3.17;85.82;98270.78;10418997;28;20120;-71
2021/11/30 15:37:29;;;;;;;0.90;0.60;;;;;;;3.15;86.37;98295.94;10419381;28;20065;-72
2021/11/30 15:42:31;;;;;;;0.73;0.60;;;;;;;3.12;87.13;98285.66;10401853;28;20407;-71
2021/11/30 15:47:33;;;;;;;1.05;0.80;;;;;;;3.15;87.97;98320.16;10418297;28;20414;-70
2021/11/30 15:52:35;;;;;;;2.00;1.15;;;;;;;3.11;89.49;98328.94;10417722;28;20124;-69
2021/11/30 15:57:37;;;;;;;2.22;1.25;;;;;;;3.12;90.62;98342.75;10398915;28;20053;-69
2021/11/30 16:02:39;;;;;;;1.13;1.00;;;;;;;3.19;90.52;98350.34;10399690;28;20046;-70
2021/11/30 16:07:41;;;;;;;0.98;0.88;;;;;;;3.28;90.21;98352.66;10416919;28;20046;-70
2021/11/30 16:12:43;;;;;;;1.10;1.00;;;;;;;3.43;90.36;98353.94;10417166;28;20470;-69
2021/11/30 16:17:45;;;;;;;1.60;1.00;;;;;;;3.54;90.86;98375.28;10417679;28;20064;-70
2021/11/30 16:22:47;;;;;;;1.58;1.33;;;;;;;3.74;91.32;98374.66;10416992;28;20041;-70
2021/11/30 16:27:48;;;;;;;1.92;1.20;;;;;;;4.08;89.49;98381.41;10416633;28;20089;-70
2021/11/30 16:32:50;;;;;;;2.45;1.00;;;;;;;4.26;89.15;98388.59;10398393;28;20129;-69
2021/11/30 16:37:55;;;;;;;3.88;1.52;;;;;;;4.26;89.52;98403.38;10396876;28;20056;-70
2021/11/30 16:42:56;;;;;;;3.58;1.20;;;;;;;4.20;90.28;98401.78;10414462;28;20045;-70
2021/11/30 16:47:58;;;;;;;6.05;1.80;;;;;;;4.19;90.52;98396.66;10414237;28;20117;-69
2021/11/30 16:53:00;;;;;;;1.85;1.27;;;;;;;4.28;89.86;98396.34;10414582;28;20045;-69
2021/11/30 16:58:06;;;;;;;2.50;1.73;;;;;;;4.43;89.49;98390.66;10396173;28;20053;-70
2021/11/30 17:03:08;;;;;;;3.78;1.80;;;;;;;4.58;88.43;98411.88;10414380;28;20061;-70
2021/11/30 17:08:10;;;;;;;2.40;1.83;;;;;;;4.59;88.90;98414.41;10419162;28;20108;-70
2021/11/30 17:13:12;;;;;;;5.25;2.17;;;;;;;4.64;89.22;98424.66;10426208;28;20069;-71
2021/11/30 17:18:14;;;;;;;3.00;1.65;;;;;;;4.68;88.27;98421.91;10424875;28;20045;-70
2021/11/30 17:23:32;;;;;;;5.40;1.50;;;;;;;4.88;86.16;98421.25;10426548;28;20144;-69
2021/11/30 17:28:34;;;;;;;1.92;0.98;;;;;;;5.04;84.64;98424.13;10422814;28;20052;-70
2021/11/30 17:33:36;;;;;;;7.60;1.73;;;;;;;4.85;85.19;98436.94;10423065;28;20052;-69
2021/11/30 17:38:38;;;;;;;4.53;1.60;;;;;;;5.06;84.03;98433.59;10421774;28;20052;-70
2021/11/30 17:43:41;;;;;;;7.45;1.67;;;;;;;5.24;82.58;98452.09;10425109;28;20091;-70
2021/11/30 17:48:43;;;;;;;5.80;1.80;;;;;;;5.24;81.95;98468.59;10424581;28;20126;-71
2021/11/30 17:53:45;;;;;;;6.95;2.40;;;;;;;5.07;82.27;98474.38;10424817;28;20083;-69
2021/11/30 17:58:48;;;;;;;5.50;1.45;;;;;;;5.21;81.23;98491.28;10425146;28;20065;-71
2021/11/30 18:03:54;;;;;;;8.07;1.70;;;;;;;5.16;82.46;98498.41;10425710;28;20045;-70
2021/11/30 18:08:56;;;;;;;5.90;2.22;;;;;;;5.09;83.90;98491.69;10425365;28;20037;-69
2021/11/30 18:13:58;;;;;;;5.95;3.25;;;;;;;5.07;85.73;98505.63;10406699;28;20076;-69
2021/11/30 18:19:00;;;;;;;3.95;2.08;;;;;;;5.17;83.43;98484.47;10424325;28;20038;-69
2021/11/30 18:24:04;;;;;;;5.15;1.92;;;;;;;5.18;81.86;98512.22;10424905;28;20048;-70
2021/11/30 18:29:06;;;;;;;9.82;2.30;;;;;;;5.06;81.05;98529.97;10424168;28;20517;-70
2021/11/30 18:34:07;;;;;;;11.05;1.92;;;;;;;5.11;80.33;98545.44;10422517;28;20124;-70
2021/11/30 18:39:09;;;;;;;5.25;1.92;;;;;;;5.02;79.73;98535.34;10423942;28;20037;-70
2021/11/30 18:44:14;;;;;;;9.13;2.38;;;;;;;5.07;78.29;98555.09;10422665;28;20045;-69
2021/11/30 18:49:18;;;;;;;8.63;2.13;;;;;;;4.90;78.96;98566.97;10422319;28;20042;-69
2021/11/30 18:54:20;;;;;;;7.07;2.38;;;;;;;4.87;78.56;98577.47;10402632;28;20144;-71
2021/11/30 18:59:21;;;;;;;14.30;7.60;;;;;;;4.95;77.17;98583.31;10402409;28;20045;-71
2021/11/30 19:04:24;;;;;;;13.02;4.45;;;;;;;4.90;77.59;98587.81;10420350;28;20052;-69
2021/11/30 19:09:25;;;;;;;16.58;7.82;;;;;;;5.11;75.23;98586.28;10421252;28;20049;-70
2021/11/30 19:14:27;;;;;;;32.13;12.68;;;;;;;4.94;76.03;98608.50;10401838;28;20049;-70
2021/11/30 19:19:32;;;;;;;21.38;3.05;;;;;;;4.79;77.09;98612.44;10420280;28;20064;-71
2021/11/30 19:24:34;;;;;;;11.10;4.93;;;;;;;4.85;77.45;98618.34;10419514;28;20160;-71
2021/11/30 19:29:36;;;;;;;11.80;3.45;;;;;;;4.91;77.43;98629.41;10418203;28;20096;-69
2021/11/30 19:34:40;;;;;;;8.88;1.80;;;;;;;4.78;79.82;98641.97;10419742;28;20055;-72
2021/11/30 19:39:42;;;;;;;7.43;2.10;;;;;;;4.63;81.82;98655.44;10419508;28;20495;-69
2021/11/30 19:44:45;;;;;;;9.68;1.55;;;;;;;4.13;83.53;98683.75;10417528;28;20071;-70
2021/11/30 19:49:47;;;;;;;7.20;1.55;;;;;;;3.74;88.09;98711.66;10417471;28;20044;-70
2021/11/30 19:54:49;;;;;;;3.53;1.23;;;;;;;3.49;87.83;98688.88;10418115;28;20045;-69
2021/11/30 19:59:51;;;;;;;13.50;4.07;;;;;;;3.69;85.32;98713.53;10402349;28;20041;-70
2021/11/30 20:10:15;;;;;;;11.77;1.40;;;;;;;3.59;82.23;98725.91;10432991;23;20049;-74
2021/11/30 20:15:26;;;;;;;7.15;1.42;;;;;;;3.57;82.64;98726.81;10403761;28;20045;-74
2021/11/30 20:20:31;;;;;;;9.35;4.88;;;;;;;3.67;81.50;98739.53;10420331;28;20046;-76
2021/11/30 20:25:34;;;;;;;13.73;3.92;;;;;;;3.71;81.16;98742.91;10421979;28;20133;-72
2021/11/30 20:30:39;;;;;;;8.80;2.17;;;;;;;3.74;81.42;98758.44;10420577;28;20041;-73
2021/11/30 20:40:47;;;;;;;13.27;2.22;;;;;;;3.95;80.23;98777.84;10421715;28;20048;-75
2021/11/30 20:45:51;;;;;;;9.02;1.90;;;;;;;4.05;79.84;98789.72;10404643;28;20049;-73
2021/11/30 20:50:53;;;;;;;9.35;2.08;;;;;;;4.01;80.68;98795.88;10405838;28;20084;-74
2021/11/30 20:55:55;;;;;;;14.48;2.10;;;;;;;3.96;80.57;98797.75;10403752;28;20041;-74
2021/11/30 21:00:57;;;;;;;17.65;3.13;;;;;;;4.11;79.60;98791.31;10420726;28;20096;-74
2021/11/30 21:06:00;;;;;;;12.30;4.97;;;;;;;4.26;78.05;98796.97;10420909;28;20446;-73
2021/11/30 21:11:02;;;;;;;11.20;3.55;;;;;;;4.33;76.34;98802.84;10421619;28;20050;-74
2021/11/30 21:16:22;;;;;;;10.32;1.92;;;;;;;4.27;75.94;98805.63;10407825;28;20403;-74
2021/11/30 21:21:26;;;;;;;62.10;14.10;;;;;;;4.37;75.39;98814.03;10404925;28;20507;-72
2021/11/30 21:26:28;;;;;;;19.10;4.32;;;;;;;4.26;76.43;98809.13;10420810;28;20112;-73
2021/11/30 21:31:30;;;;;;;10.00;1.88;;;;;;;4.12;77.31;98822.50;10403359;28;20145;-72
2021/11/30 21:36:32;;;;;;;16.45;2.50;;;;;;;4.11;76.62;98833.75;10403986;28;20049;-72
2021/11/30 21:41:34;;;;;;;11.95;2.60;;;;;;;4.25;75.66;98860.31;10421387;28;20113;-72
2021/11/30 21:46:37;;;;;;;7.07;2.38;;;;;;;4.30;75.78;98862.78;10418233;28;20049;-73
2021/11/30 21:51:41;;;;;;;13.40;2.55;;;;;;;4.40;75.05;98885.06;10418742;28;20493;-72
2021/11/30 21:56:46;;;;;;;7.95;1.60;;;;;;;4.27;76.50;98896.69;10408594;28;20495;-74
2021/11/30 22:01:48;;;;;;;5.95;1.80;;;;;;;4.24;76.76;98902.78;10410311;28;20037;-73
2021/11/30 22:06:51;;;;;;;9.82;3.13;;;;;;;4.29;76.58;98916.56;10408270;28;20107;-73
2021/11/30 22:11:52;;;;;;;13.65;2.33;;;;;;;4.35;76.86;98927.72;10427262;28;20075;-79
2021/11/30 22:16:54;;;;;;;9.45;1.77;;;;;;;4.51;75.91;98929.88;10426303;28;20065;-72
2021/11/30 22:21:56;;;;;;;15.68;3.40;;;;;;;4.54;75.47;98914.19;10408274;28;20466;-72
2021/11/30 22:26:58;;;;;;;15.02;2.17;;;;;;;4.51;76.36;98911.66;10427200;28;20136;-72
2021/11/30 22:32:00;;;;;;;10.65;1.98;;;;;;;4.55;76.42;98926.31;10409591;28;20054;-72
2021/11/30 22:37:05;;;;;;;15.82;2.65;;;;;;;4.45;77.10;98929.19;10410198;28;20048;-72
2021/11/30 22:42:07;;;;;;;15.20;1.70;;;;;;;4.52;76.40;98933.38;10427002;28;20113;-72
2021/11/30 22:47:11;;;;;;;9.88;2.08;;;;;;;4.72;75.67;98932.84;10408625;28;20053;-73
2021/11/30 22:52:13;;;;;;;10.65;1.90;;;;;;;4.53;76.02;98935.06;10409023;28;20041;-73
2021/11/30 22:57:14;;;;;;;9.18;1.92;;;;;;;4.68;75.33;98933.81;10426283;28;20132;-72
2021/11/30 23:02:17;;;;;;;11.90;1.80;;;;;;;4.50;76.31;98933.38;10425970;28;20554;-72
2021/11/30 23:07:19;;;;;;;7.60;1.95;;;;;;;4.58;75.40;98942.75;10409060;28;20403;-72
2021/11/30 23:12:21;;;;;;;9.13;2.20;;;;;;;4.59;75.77;98949.66;10408409;28;20103;-72
2021/11/30 23:17:24;;;;;;;10.98;1.98;;;;;;;4.73;74.34;98937.16;10424529;28;20041;-72
2021/11/30 23:22:27;;;;;;;6.63;1.40;;;;;;;4.68;74.25;98933.81;10406413;28;20033;-74
2021/11/30 23:27:30;;;;;;;10.48;1.90;;;;;;;4.64;74.85;98929.59;10390866;28;20045;-72
2021/11/30 23:32:33;;;;;;;11.18;2.00;;;;;;;4.51;75.71;98929.88;10406322;28;20132;-72
2021/11/30 23:37:34;;;;;;;10.98;2.20;;;;;;;4.57;74.81;98923.69;10424648;28;20151;-73
2021/11/30 23:42:36;;;;;;;8.00;1.58;;;;;;;4.66;74.37;98918.25;10405487;28;20120;-73
2021/11/30 23:47:38;;;;;;;12.00;2.40;;;;;;;4.74;73.78;98918.06;10423140;28;20096;-72
2021/11/30 23:52:40;;;;;;;16.02;2.20;;;;;;;4.51;75.05;98916.03;10405187;28;20057;-73
2021/11/30 23:57:42;;;;;;;11.60;1.90;;;;;;;4.72;73.27;98907.66;10422308;28;20092;-71
